Time;durP1;ratioP1;P1;durP2;ratioP2;P2;SDS_P1;SDS_P2;PMS_P1;PMS_P2;Temp;Humidity;BMP_temperature;BMP_pressure;BME280_temperature;BME280_humidity;BME280_pressure;Samples;Min_cycle;Max_cycle;Signal;HPM_P1;HPM_P2
2022/11/09 00:02:20;;;;;;;57.53;25.27;;;;;;;12.52;100.00;98207.81;4910459;29;20027;-76
2022/11/09 00:04:45;;;;;;;52.75;24.67;;;;;;;12.45;100.00;98200.22;4899826;29;20028;-76
2022/11/09 00:07:11;;;;;;;48.47;24.38;;;;;;;12.37;100.00;98197.09;4890935;29;20401;-76
2022/11/09 00:09:37;;;;;;;51.92;24.83;;;;;;;12.47;100.00;98201.00;4890330;29;20091;-76
2022/11/09 00:12:03;;;;;;;61.42;27.48;;;;;;;12.51;100.00;98199.88;4882511;29;20040;-76
2022/11/09 00:14:30;;;;;;;61.70;26.30;;;;;;;12.53;100.00;98208.69;4903660;29;20084;-76
2022/11/09 00:16:56;;;;;;;53.28;24.70;;;;;;;12.48;100.00;98194.69;4894814;29;20421;-76
2022/11/09 00:19:22;;;;;;;46.40;22.63;;;;;;;12.41;100.00;98201.34;4897126;29;20119;-77
2022/11/09 00:21:48;;;;;;;44.53;20.70;;;;;;;12.38;100.00;98205.09;4899801;29;20019;-76
2022/11/09 00:24:14;;;;;;;44.05;21.08;;;;;;;12.27;100.00;98194.13;4909155;29;20019;-76
2022/11/09 00:26:39;;;;;;;42.90;21.05;;;;;;;12.30;100.00;98204.69;4898369;29;20226;-77
2022/11/09 00:29:05;;;;;;;41.40;20.60;;;;;;;12.22;100.00;98193.50;4903832;29;20457;-78
2022/11/09 00:31:31;;;;;;;42.85;21.13;;;;;;;12.29;100.00;98197.56;4891807;29;20028;-77
2022/11/09 00:33:57;;;;;;;50.25;23.50;;;;;;;12.15;100.00;98205.53;4888374;29;20487;-78
2022/11/09 00:36:24;;;;;;;52.58;23.02;;;;;;;12.12;100.00;98205.72;4891860;29;20043;-77
2022/11/09 00:38:52;;;;;;;48.00;23.67;;;;;;;12.12;100.00;98207.56;4915785;29;20551;-77
2022/11/09 00:41:18;;;;;;;48.45;22.40;;;;;;;12.04;100.00;98202.63;4886602;29;20136;-77
2022/11/09 00:43:44;;;;;;;44.28;22.90;;;;;;;12.04;100.00;98205.31;4909173;29;20027;-77
2022/11/09 00:46:10;;;;;;;47.47;23.58;;;;;;;12.09;100.00;98205.06;4900011;29;20257;-77
2022/11/09 00:48:35;;;;;;;48.55;23.35;;;;;;;12.03;100.00;98195.53;4898180;29;20035;-76
2022/11/09 00:51:01;;;;;;;49.78;22.98;;;;;;;12.02;100.00;98199.16;4897472;29;20031;-76
2022/11/09 00:53:27;;;;;;;51.40;23.20;;;;;;;12.04;100.00;98202.63;4888540;29;20032;-76
2022/11/09 00:56:03;;;;;;;50.08;22.58;;;;;;;12.02;100.00;98198.31;4910602;29;20107;-76
2022/11/09 00:58:30;;;;;;;50.45;22.55;;;;;;;12.01;100.00;98197.44;4917859;29;20035;-76
2022/11/09 01:00:57;;;;;;;51.25;23.13;;;;;;;12.04;100.00;98213.34;4896530;29;20119;-77
2022/11/09 01:03:24;;;;;;;50.20;23.45;;;;;;;11.99;100.00;98198.47;4896654;29;20028;-77
2022/11/09 01:05:59;;;;;;;50.45;23.48;;;;;;;11.90;100.00;98191.84;4901270;29;20042;-77
2022/11/09 01:08:25;;;;;;;55.55;23.10;;;;;;;11.90;100.00;98194.50;4903081;29;20032;-77
2022/11/09 01:10:50;;;;;;;51.25;22.80;;;;;;;11.99;100.00;98198.47;4893315;29;20032;-77
2022/11/09 01:13:17;;;;;;;48.97;23.42;;;;;;;11.99;100.00;98210.06;4891497;29;20514;-76
2022/11/09 01:15:45;;;;;;;57.83;25.08;;;;;;;11.88;100.00;98202.63;4904012;29;20031;-76
2022/11/09 01:18:11;;;;;;;47.58;24.10;;;;;;;11.92;100.00;98214.03;4918393;29;20499;-76
2022/11/09 01:20:42;;;;;;;47.58;22.90;;;;;;;11.86;100.00;98207.22;4895170;29;20035;-76
2022/11/09 01:23:08;;;;;;;48.88;23.95;;;;;;;11.76;100.00;98199.78;4901039;29;20039;-76
2022/11/09 01:25:34;;;;;;;51.65;24.30;;;;;;;11.77;100.00;98209.56;4911585;29;20031;-76
2022/11/09 01:28:00;;;;;;;53.65;24.65;;;;;;;11.69;100.00;98214.47;4898714;29;20028;-76
2022/11/09 01:30:26;;;;;;;56.92;24.10;;;;;;;11.69;100.00;98214.47;4916494;29;20031;-77
2022/11/09 01:32:52;;;;;;;46.80;24.02;;;;;;;11.67;100.00;98209.16;4902564;29;20415;-76
2022/11/09 01:35:18;;;;;;;49.90;22.63;;;;;;;11.76;100.00;98229.25;4909463;29;20052;-77
2022/11/09 01:37:44;;;;;;;52.63;24.65;;;;;;;11.73;100.00;98206.19;4895167;29;20024;-77
2022/11/09 01:40:10;;;;;;;44.20;22.60;;;;;;;11.79;100.00;98215.69;4889776;29;20507;-77
2022/11/09 01:42:37;;;;;;;50.65;23.23;;;;;;;11.79;100.00;98207.63;4893785;29;20083;-76
2022/11/09 01:45:18;;;;;;;50.20;23.13;;;;;;;11.83;100.00;98209.22;4884885;29;20087;-76
2022/11/09 01:48:17;;;;;;;44.90;22.60;;;;;;;11.87;100.00;98208.94;4902619;29;20036;-76
2022/11/09 01:51:03;;;;;;;44.33;21.42;;;;;;;11.85;100.00;98205.47;4913551;29;20070;-77
2022/11/09 01:53:30;;;;;;;42.25;20.40;;;;;;;11.88;100.00;98212.47;4909772;29;20031;-77
2022/11/09 01:56:00;;;;;;;49.80;21.13;;;;;;;11.83;100.00;98196.66;4907970;29;20039;-77
2022/11/09 01:59:07;;;;;;;48.55;22.38;;;;;;;11.82;100.00;98194.06;4898159;29;20035;-77
2022/11/09 02:01:33;;;;;;;52.08;23.65;;;;;;;11.83;100.00;98204.72;4867500;29;20432;-77
2022/11/09 02:04:06;;;;;;;42.85;20.88;;;;;;;11.79;100.00;98202.28;4895418;29;20043;-76
2022/11/09 02:06:33;;;;;;;49.72;22.38;;;;;;;11.74;100.00;98207.91;4911056;29;20032;-77
2022/11/09 02:09:15;;;;;;;46.95;22.50;;;;;;;11.76;100.00;98207.81;4896458;29;20044;-76
2022/11/09 02:11:41;;;;;;;47.72;22.83;;;;;;;11.77;100.00;98214.91;4901409;29;20042;-78
2022/11/09 02:14:07;;;;;;;48.40;23.77;;;;;;;11.76;100.00;98218.53;4906321;29;20032;-77
2022/11/09 02:16:33;;;;;;;45.65;22.95;;;;;;;11.67;100.00;98214.53;4893107;29;20042;-77
2022/11/09 02:18:59;;;;;;;49.80;23.33;;;;;;;11.76;100.00;98218.53;4901600;29;20115;-77
2022/11/09 02:21:27;;;;;;;47.13;23.30;;;;;;;11.79;100.00;98226.41;4889767;29;20027;-76
2022/11/09 02:23:53;;;;;;;43.22;22.27;;;;;;;11.77;100.00;98225.63;4906337;29;20043;-77
2022/11/09 02:26:34;;;;;;;51.88;23.48;;;;;;;11.79;100.00;98223.72;4924510;29;20036;-76
2022/11/09 02:29:01;;;;;;;49.63;23.25;;;;;;;11.86;100.00;98225.13;4886934;29;20388;-76
2022/11/09 02:31:31;;;;;;;47.50;24.30;;;;;;;11.82;100.00;98220.88;4896082;29;20032;-76
2022/11/09 02:34:04;;;;;;;46.47;22.35;;;;;;;11.80;100.00;98230.81;4883713;29;20543;-76
2022/11/09 02:36:30;;;;;;;47.05;24.02;;;;;;;11.78;100.00;98235.41;4914561;29;20050;-76
2022/11/09 02:38:56;;;;;;;50.17;23.70;;;;;;;11.73;100.00;98226.75;4899808;29;20487;-75
2022/11/09 02:41:22;;;;;;;43.75;22.40;;;;;;;11.73;100.00;98232.97;4907452;29;20031;-76
2022/11/09 02:43:49;;;;;;;45.83;22.33;;;;;;;11.69;100.00;98231.38;4900593;29;20114;-76
2022/11/09 02:46:30;;;;;;;45.10;22.45;;;;;;;11.64;100.00;98233.44;4883605;29;20028;-76
2022/11/09 02:48:56;;;;;;;43.65;21.70;;;;;;;11.68;100.00;98231.47;4896502;29;20500;-76
2022/11/09 02:51:21;;;;;;;47.63;22.63;;;;;;;11.74;100.00;98244.56;4904309;29;20043;-76
2022/11/09 02:53:47;;;;;;;45.72;23.30;;;;;;;11.71;100.00;98236.69;4909697;29;20047;-77
2022/11/09 02:56:12;;;;;;;43.10;22.13;;;;;;;11.69;100.00;98235.91;4890134;29;20066;-75
2022/11/09 02:58:38;;;;;;;47.30;22.88;;;;;;;11.68;100.00;98231.47;4919534;29;20024;-76
2022/11/09 03:01:04;;;;;;;44.75;22.45;;;;;;;11.62;100.00;98239.84;4896380;29;20415;-76
2022/11/09 03:03:29;;;;;;;44.70;22.38;;;;;;;11.65;100.00;98231.66;4896669;29;20031;-76
2022/11/09 03:05:55;;;;;;;46.05;21.35;;;;;;;11.63;100.00;98233.56;4911098;29;20039;-76
2022/11/09 03:08:20;;;;;;;44.53;22.45;;;;;;;11.61;100.00;98236.31;4888201;29;20090;-77
2022/11/09 03:10:46;;;;;;;44.17;21.65;;;;;;;11.60;100.00;98239.06;4898860;29;20440;-77
2022/11/09 03:13:17;;;;;;;47.63;22.58;;;;;;;11.56;100.00;98226.78;4888648;29;20415;-77
2022/11/09 03:15:42;;;;;;;51.20;21.88;;;;;;;11.59;100.00;98231.97;4911238;29;20023;-77
2022/11/09 03:18:08;;;;;;;44.17;21.95;;;;;;;11.55;100.00;98236.63;4896647;29;20130;-77
2022/11/09 03:20:33;;;;;;;48.00;23.38;;;;;;;11.51;100.00;98234.19;4892975;29;20099;-77
2022/11/09 03:22:59;;;;;;;53.85;23.42;;;;;;;11.56;100.00;98243.75;4896662;29;20035;-77
2022/11/09 03:25:26;;;;;;;51.08;23.63;;;;;;;11.52;100.00;98242.16;4889165;29;20039;-77
2022/11/09 03:28:03;;;;;;;49.13;22.77;;;;;;;11.39;100.00;98233.06;4906220;29;20032;-77
2022/11/09 03:30:29;;;;;;;49.33;23.98;;;;;;;11.36;100.00;98236.78;4890831;29;20114;-77
2022/11/09 03:33:03;;;;;;;54.50;24.92;;;;;;;11.33;100.00;98238.75;4911250;29;20138;-76
2022/11/09 03:35:28;;;;;;;49.65;24.55;;;;;;;11.39;100.00;98247.31;4901144;29;20052;-76
2022/11/09 03:37:54;;;;;;;50.17;23.92;;;;;;;11.33;100.00;98231.59;4898886;29;20118;-76
2022/11/09 03:40:20;;;;;;;61.72;24.30;;;;;;;11.30;100.00;98242.47;4903433;29;20107;-76
2022/11/09 03:42:47;;;;;;;50.13;24.02;;;;;;;11.19;100.00;98247.53;4885042;29;20036;-76
2022/11/09 03:45:14;;;;;;;56.65;25.13;;;;;;;11.17;100.00;98244.06;4885254;29;20032;-76
2022/11/09 03:47:43;;;;;;;62.13;25.85;;;;;;;11.09;100.00;98253.44;4895465;29;20400;-77
2022/11/09 03:50:10;;;;;;;53.78;25.33;;;;;;;11.05;100.00;98255.41;4911080;29;20032;-76
2022/11/09 03:52:36;;;;;;;62.40;27.15;;;;;;;10.99;100.00;98254.88;4901053;29;20436;-77
2022/11/09 03:55:03;;;;;;;56.42;26.67;;;;;;;10.93;100.00;98258.72;4908668;29;20028;-75
2022/11/09 03:57:29;;;;;;;54.50;26.58;;;;;;;10.85;100.00;98260.97;4908747;29;20036;-76
2022/11/09 03:59:55;;;;;;;56.53;25.15;;;;;;;10.77;100.00;98271.16;4895271;29;20035;-75
2022/11/09 04:02:20;;;;;;;65.78;26.05;;;;;;;10.74;100.00;98274.00;4888713;29;20497;-75
2022/11/09 04:04:46;;;;;;;56.60;27.98;;;;;;;10.68;100.00;98274.31;4909255;29;20074;-77
2022/11/09 04:07:11;;;;;;;57.60;26.92;;;;;;;10.57;100.00;98269.53;4883573;29;20067;-76
2022/11/09 04:09:39;;;;;;;63.00;27.50;;;;;;;10.48;100.00;98282.47;4892932;29;20399;-78
2022/11/09 04:12:05;;;;;;;63.90;27.48;;;;;;;10.45;100.00;98282.63;4901581;29;20415;-76
2022/11/09 04:14:31;;;;;;;70.13;30.23;;;;;;;10.43;100.00;98284.53;4893417;29;20043;-75
2022/11/09 04:16:56;;;;;;;65.68;28.10;;;;;;;10.33;100.00;98273.41;4898598;29;20095;-76
2022/11/09 04:19:22;;;;;;;67.13;28.50;;;;;;;10.22;100.00;98279.28;4887677;29;20024;-76
2022/11/09 04:21:48;;;;;;;68.07;28.50;;;;;;;10.11;100.00;98284.25;4909486;29;20031;-76
2022/11/09 04:24:13;;;;;;;60.08;26.23;;;;;;;10.15;100.00;98291.19;4893208;29;20476;-76
2022/11/09 04:26:39;;;;;;;62.38;27.13;;;;;;;10.16;100.00;98286.72;4916977;29;20484;-77
2022/11/09 04:29:04;;;;;;;64.68;26.90;;;;;;;10.03;100.00;98281.06;4895908;29;20073;-77
2022/11/09 04:31:30;;;;;;;59.70;26.75;;;;;;;9.97;100.00;98281.38;4901361;29;20051;-77
2022/11/09 04:33:56;;;;;;;57.28;27.50;;;;;;;9.88;100.00;98289.81;4897487;29;20052;-76
2022/11/09 04:36:21;;;;;;;61.70;27.73;;;;;;;9.85;100.00;98292.63;4888741;29;20037;-76
2022/11/09 04:38:47;;;;;;;69.47;28.15;;;;;;;9.73;100.00;98287.88;4896699;29;20017;-76
2022/11/09 04:41:13;;;;;;;65.95;29.40;;;;;;;9.74;100.00;98294.97;4909803;29;20054;-76
2022/11/09 04:43:38;;;;;;;78.97;31.35;;;;;;;9.72;100.00;98299.53;4899326;29;20027;-74
2022/11/09 04:46:04;;;;;;;104.97;38.13;;;;;;;9.65;100.00;98298.94;4919711;29;20476;-73
2022/11/09 04:48:31;;;;;;;92.88;36.63;;;;;;;9.60;100.00;98297.38;4903825;29;20547;-73
2022/11/09 04:51:09;;;;;;;105.22;40.25;;;;;;;9.53;100.00;98306.63;4914449;29;20028;-73
2022/11/09 04:53:37;;;;;;;112.55;45.20;;;;;;;9.48;100.00;98308.63;4903984;29;20038;-72
2022/11/09 04:56:04;;;;;;;106.72;39.60;;;;;;;9.50;100.00;98309.44;4903892;29;20035;-74
2022/11/09 04:58:29;;;;;;;79.10;34.92;;;;;;;9.44;100.00;98315.06;4919597;29;20035;-73
2022/11/09 05:01:08;;;;;;;64.32;27.52;;;;;;;9.47;100.00;98318.47;4919809;29;20028;-74
2022/11/09 05:03:34;;;;;;;60.97;24.85;;;;;;;9.36;100.00;98309.19;4903872;29;20039;-73
2022/11/09 05:05:59;;;;;;;65.68;25.52;;;;;;;9.32;100.00;98320.97;4919100;29;20039;-73
2022/11/09 05:08:25;;;;;;;55.85;25.13;;;;;;;9.22;100.00;98317.81;4913138;29;20030;-73
2022/11/09 05:10:56;;;;;;;62.10;25.55;;;;;;;9.11;100.00;98312.94;4900308;29;20407;-74
2022/11/09 05:13:21;;;;;;;62.40;25.27;;;;;;;9.20;100.00;98328.56;4900343;29;20036;-73
2022/11/09 05:15:47;;;;;;;57.88;25.83;;;;;;;9.21;100.00;98330.28;4884546;29;20028;-73
2022/11/09 05:18:13;;;;;;;56.90;24.42;;;;;;;9.19;100.00;98329.50;4892802;29;20372;-74
2022/11/09 05:20:38;;;;;;;59.42;27.17;;;;;;;9.20;100.00;98335.69;4911345;29;20038;-73
2022/11/09 05:25:47;;;;;;;92.28;39.05;;;;;;;9.28;100.00;98349.59;4899937;29;20054;-73
2022/11/09 05:28:13;;;;;;;87.97;36.15;;;;;;;9.37;100.00;98353.66;4899839;29;20510;-73
2022/11/09 05:30:39;;;;;;;106.32;40.60;;;;;;;9.41;100.00;98349.91;4907785;29;20110;-74
2022/11/09 05:33:05;;;;;;;101.32;42.45;;;;;;;9.45;100.00;98346.16;4883991;29;20405;-73
2022/11/09 05:35:32;;;;;;;105.72;42.17;;;;;;;9.53;100.00;98354.72;4916382;29;20063;-73
2022/11/09 05:37:57;;;;;;;74.25;32.80;;;;;;;9.70;100.00;98365.47;4899873;29;20103;-73
2022/11/09 05:40:23;;;;;;;64.43;30.10;;;;;;;9.70;100.00;98353.00;4916711;29;20055;-74
2022/11/09 05:42:49;;;;;;;72.85;30.60;;;;;;;9.80;100.00;98359.66;4899648;29;20109;-72
2022/11/09 05:45:20;;;;;;;69.20;29.73;;;;;;;9.88;100.00;98363.78;4883013;29;20032;-73
2022/11/09 05:47:46;;;;;;;66.25;27.90;;;;;;;10.04;100.00;98357.66;4916747;29;20032;-72
2022/11/09 05:50:13;;;;;;;61.22;27.58;;;;;;;10.26;100.00;98363.75;4916390;29;20034;-73
2022/11/09 05:52:39;;;;;;;54.03;29.05;;;;;;;10.26;100.00;98363.75;4916538;29;20488;-73
2022/11/09 05:55:05;;;;;;;66.15;27.48;;;;;;;10.52;100.00;98361.66;4899515;29;20103;-75
2022/11/09 05:57:31;;;;;;;86.05;29.50;;;;;;;10.70;100.00;98360.75;4899518;29;20031;-74
2022/11/09 05:59:56;;;;;;;65.13;27.50;;;;;;;10.85;100.00;98360.84;4883802;29;20032;-74
2022/11/09 06:02:22;;;;;;;58.40;26.98;;;;;;;11.10;100.00;98357.81;4916233;29;20429;-73
2022/11/09 06:04:47;;;;;;;60.33;27.73;;;;;;;11.33;100.00;98345.88;4899603;29;20035;-73
2022/11/09 06:07:14;;;;;;;64.05;26.80;;;;;;;11.78;100.00;98358.72;4916003;29;20498;-74
2022/11/09 06:09:39;;;;;;;52.90;22.80;;;;;;;12.43;100.00;98350.56;4899610;29;20460;-72
2022/11/09 06:12:05;;;;;;;38.08;21.38;;;;;;;12.61;100.00;98326.34;4899203;29;20055;-72
2022/11/09 06:14:31;;;;;;;50.53;21.80;;;;;;;13.43;100.00;98331.25;4916319;29;20464;-73
2022/11/09 06:16:56;;;;;;;43.08;20.08;;;;;;;14.19;100.00;98312.13;4916080;29;20064;-73
2022/11/09 06:19:22;;;;;;;49.00;23.20;;;;;;;14.53;100.00;98290.16;4898990;29;20027;-74
2022/11/09 06:21:47;;;;;;;42.55;23.13;;;;;;;15.33;100.00;98273.03;4899438;29;20468;-73
2022/11/09 06:24:13;;;;;;;46.80;22.33;;;;;;;15.79;100.00;98263.47;4915869;29;20039;-73
2022/11/09 06:26:38;;;;;;;45.15;20.95;;;;;;;16.26;98.02;98257.31;4916069;29;20020;-72
2022/11/09 06:29:04;;;;;;;48.92;20.67;;;;;;;16.65;95.66;98240.88;4883217;29;20460;-73
2022/11/09 06:31:30;;;;;;;40.20;20.85;;;;;;;17.43;89.92;98222.22;4899088;29;20038;-73
2022/11/09 06:33:55;;;;;;;43.35;20.95;;;;;;;17.26;88.62;98201.88;4898696;29;20056;-74
2022/11/09 06:36:21;;;;;;;39.30;19.35;;;;;;;17.25;88.78;98186.66;4898581;29;20036;-74
2022/11/09 06:38:53;;;;;;;30.67;18.50;;;;;;;17.59;86.92;98186.72;4915810;29;20117;-74
2022/11/09 06:41:18;;;;;;;37.90;19.43;;;;;;;17.78;84.67;98176.97;4915662;29;20087;-73
2022/11/09 06:43:44;;;;;;;36.20;19.60;;;;;;;17.77;83.60;98159.03;4915829;29;20471;-74
2022/11/09 06:46:10;;;;;;;40.63;20.38;;;;;;;17.79;84.63;98151.63;4898586;29;20432;-73
2022/11/09 06:48:37;;;;;;;37.17;18.77;;;;;;;18.29;82.19;98150.19;4904761;29;20436;-73
2022/11/09 06:51:03;;;;;;;39.75;19.25;;;;;;;18.95;78.49;98142.75;4934481;29;20072;-73
2022/11/09 06:53:30;;;;;;;42.13;21.70;;;;;;;19.39;75.67;98137.06;4917542;29;20035;-73
2022/11/09 06:55:57;;;;;;;41.90;21.15;;;;;;;19.69;74.29;98135.31;4917382;29;20028;-74
2022/11/09 06:58:23;;;;;;;46.33;21.40;;;;;;;20.13;71.32;98115.00;4917285;29;20054;-73
2022/11/09 07:00:49;;;;;;;45.10;20.40;;;;;;;20.37;70.04;98112.78;4917466;29;20055;-73
2022/11/09 07:03:16;;;;;;;42.67;21.33;;;;;;;20.30;70.46;98101.63;4901413;29;20031;-73
2022/11/09 07:05:41;;;;;;;50.17;23.45;;;;;;;20.32;70.14;98096.91;4898493;29;20028;-74
2022/11/09 07:08:07;;;;;;;43.72;22.63;;;;;;;20.83;67.71;98093.88;4915243;29;20496;-72
2022/11/09 07:10:32;;;;;;;47.03;21.70;;;;;;;21.09;65.35;98072.41;4917629;29;20028;-74
2022/11/09 07:12:58;;;;;;;45.13;23.25;;;;;;;21.05;64.91;98077.22;4934166;29;20035;-73
2022/11/09 07:15:24;;;;;;;58.13;26.63;;;;;;;20.47;66.56;98059.28;4934328;29;20028;-73
2022/11/09 07:17:49;;;;;;;50.63;23.80;;;;;;;20.98;65.40;98059.78;4934147;29;20023;-73
2022/11/09 07:20:15;;;;;;;54.85;25.33;;;;;;;20.75;64.93;98047.53;4933915;29;20384;-73
2022/11/09 07:22:41;;;;;;;57.47;25.08;;;;;;;21.05;65.27;98055.47;4917187;29;20038;-73
2022/11/09 07:25:08;;;;;;;50.95;25.27;;;;;;;21.57;63.37;98055.84;4917055;29;20031;-74
2022/11/09 07:27:33;;;;;;;53.15;27.85;;;;;;;21.54;62.96;98045.28;4933847;29;20024;-74
2022/11/09 07:29:59;;;;;;;48.80;26.65;;;;;;;21.20;63.17;98030.53;4916804;29;20403;-74
2022/11/09 07:32:24;;;;;;;46.60;26.40;;;;;;;21.43;64.07;98046.34;4933504;29;20427;-73
2022/11/09 07:34:50;;;;;;;42.92;23.48;;;;;;;21.78;62.48;98023.78;4933666;29;20132;-73
2022/11/09 07:37:15;;;;;;;71.38;29.15;;;;;;;20.82;65.15;98032.34;4916585;29;20030;-73
2022/11/09 07:39:41;;;;;;;50.25;26.50;;;;;;;20.68;65.35;98019.19;4933803;29;20034;-73
2022/11/09 07:42:06;;;;;;;59.42;26.30;;;;;;;20.82;66.64;98026.91;4933776;29;20028;-73
2022/11/09 07:44:32;;;;;;;65.70;25.63;;;;;;;21.35;64.54;98007.28;4933514;29;20035;-73
2022/11/09 07:46:58;;;;;;;49.63;24.23;;;;;;;21.57;62.95;98023.19;4900741;29;20035;-73
2022/11/09 07:49:24;;;;;;;43.92;24.17;;;;;;;21.67;62.65;98013.09;4933437;29;20028;-73
2022/11/09 07:51:49;;;;;;;38.13;22.55;;;;;;;22.32;61.70;98025.56;4933748;29;20401;-73
2022/11/09 07:54:15;;;;;;;41.30;23.15;;;;;;;23.13;57.97;98010.66;4916430;29;20081;-73
2022/11/09 07:56:40;;;;;;;37.45;21.75;;;;;;;22.36;59.14;98001.59;4916354;29;20091;-72
2022/11/09 07:59:06;;;;;;;42.33;22.05;;;;;;;21.54;61.30;97990.81;4933794;29;20023;-74
2022/11/09 08:01:31;;;;;;;36.30;21.98;;;;;;;22.00;61.82;98004.28;4933114;29;20484;-72
2022/11/09 08:03:57;;;;;;;42.30;21.92;;;;;;;22.71;59.13;98001.53;4916696;29;20039;-75
2022/11/09 08:06:26;;;;;;;49.42;22.58;;;;;;;23.37;57.30;98007.25;4933292;29;20031;-72
2022/11/09 08:08:53;;;;;;;60.75;22.20;;;;;;;23.15;57.05;97994.16;4920164;29;20023;-72
2022/11/09 08:11:18;;;;;;;47.40;22.70;;;;;;;23.48;55.70;97982.38;4937702;29;20479;-73
2022/11/09 08:13:44;;;;;;;40.50;22.13;;;;;;;22.82;57.12;97976.75;4920226;29;20028;-72
2022/11/09 08:16:10;;;;;;;50.42;20.85;;;;;;;23.16;56.13;97974.84;4904608;29;20043;-73
2022/11/09 08:18:35;;;;;;;44.00;20.40;;;;;;;23.57;54.97;97980.53;4904481;29;20456;-72
2022/11/09 08:21:02;;;;;;;48.90;21.30;;;;;;;23.63;54.96;97985.31;4937288;29;20118;-72
2022/11/09 08:23:28;;;;;;;35.30;20.85;;;;;;;24.39;53.36;97976.97;4937153;29;20027;-72
2022/11/09 08:25:53;;;;;;;43.13;21.58;;;;;;;24.42;52.92;97976.63;4920004;29;20035;-72
2022/11/09 08:28:19;;;;;;;41.83;20.90;;;;;;;23.99;54.00;97973.16;4904438;29;20062;-73
2022/11/09 08:30:53;;;;;;;39.15;20.63;;;;;;;24.36;53.09;97978.16;4919887;29;20037;-73
2022/11/09 08:33:18;;;;;;;33.20;20.25;;;;;;;24.15;53.37;97970.44;4920103;29;20038;-73
2022/11/09 08:35:43;;;;;;;44.45;24.15;;;;;;;24.64;51.31;97960.34;4919652;29;20051;-72
2022/11/09 08:38:09;;;;;;;35.92;19.08;;;;;;;24.30;51.71;97953.38;4919986;29;20024;-73
2022/11/09 08:40:35;;;;;;;32.67;20.13;;;;;;;24.19;52.73;97962.75;4919799;29;20039;-71
2022/11/09 08:43:06;;;;;;;30.90;19.15;;;;;;;24.68;51.62;97963.59;4919418;29;20035;-72
2022/11/09 08:45:33;;;;;;;30.27;18.33;;;;;;;24.71;50.47;97941.34;4919634;29;20400;-72
2022/11/09 08:48:00;;;;;;;31.63;18.27;;;;;;;23.49;52.41;97925.88;4919651;29;20032;-72
2022/11/09 08:50:26;;;;;;;32.95;18.20;;;;;;;22.56;55.16;97940.38;4919892;29;20039;-73
2022/11/09 08:52:52;;;;;;;32.72;18.75;;;;;;;22.16;56.53;97943.66;4936705;29;20095;-73
2022/11/09 08:55:17;;;;;;;36.75;18.50;;;;;;;22.97;55.23;97955.16;4919690;29;20023;-72
2022/11/09 08:57:43;;;;;;;32.65;17.60;;;;;;;23.81;53.66;97972.41;4909525;29;20027;-71
2022/11/09 09:00:09;;;;;;;43.83;18.35;;;;;;;25.38;49.69;97972.84;4900686;29;20484;-73
2022/11/09 09:02:34;;;;;;;30.83;17.75;;;;;;;25.84;48.70;97965.66;4917644;29;20091;-71
2022/11/09 09:05:00;;;;;;;32.08;18.17;;;;;;;26.70;46.52;97970.88;4900781;29;20028;-72
2022/11/09 09:07:26;;;;;;;46.67;18.92;;;;;;;26.89;45.98;97962.09;4900348;29;20528;-73
2022/11/09 09:09:51;;;;;;;38.83;19.58;;;;;;;27.12;45.25;97956.53;4918565;29;20062;-74
2022/11/09 09:12:17;;;;;;;34.58;16.70;;;;;;;27.23;44.46;97948.69;4936213;29;20024;-73
2022/11/09 09:14:42;;;;;;;37.40;18.45;;;;;;;26.91;45.55;97935.31;4903197;29;20114;-72
2022/11/09 09:17:08;;;;;;;30.63;17.38;;;;;;;26.98;44.70;97932.69;4936265;29;20066;-72
2022/11/09 09:19:33;;;;;;;31.90;17.98;;;;;;;25.84;46.30;97910.84;4935709;29;20472;-74
2022/11/09 09:22:00;;;;;;;29.02;17.60;;;;;;;26.00;46.38;97921.66;4906599;29;20110;-73
2022/11/09 09:24:25;;;;;;;31.67;17.17;;;;;;;26.61;45.66;97930.81;4900204;29;20149;-71
2022/11/09 09:26:51;;;;;;;27.95;16.67;;;;;;;26.68;45.07;97921.63;4899801;29;20159;-73
2022/11/09 09:29:17;;;;;;;27.02;15.88;;;;;;;26.45;45.31;97906.25;4917380;29;20032;-72
2022/11/09 09:31:42;;;;;;;26.30;16.63;;;;;;;24.82;48.96;97919.16;4900018;29;20024;-72
2022/11/09 09:34:10;;;;;;;29.30;16.15;;;;;;;26.42;46.27;97934.91;4917135;29;20036;-73
2022/11/09 09:36:35;;;;;;;30.45;14.18;;;;;;;26.99;43.76;97913.25;4900301;29;20567;-72
2022/11/09 09:39:01;;;;;;;32.65;16.60;;;;;;;25.49;46.86;97889.47;4916658;29;20024;-72
2022/11/09 09:41:40;;;;;;;37.00;16.42;;;;;;;26.85;45.38;97925.09;4899847;29;20020;-73
2022/11/09 09:44:16;;;;;;;31.77;15.40;;;;;;;26.23;45.39;97889.63;4916797;29;20043;-72
2022/11/09 09:46:48;;;;;;;25.13;14.52;;;;;;;25.65;45.10;97870.19;4899783;29;20035;-71
2022/11/09 09:49:19;;;;;;;29.20;13.85;;;;;;;26.39;44.80;97885.91;4899822;29;20039;-74
2022/11/09 09:52:08;;;;;;;25.10;14.32;;;;;;;26.57;43.32;97877.31;4893567;29;20027;-73
2022/11/09 09:54:39;;;;;;;19.45;12.40;;;;;;;26.36;41.82;97872.56;4918298;29;20049;-72
2022/11/09 09:57:13;;;;;;;24.10;13.10;;;;;;;27.45;40.64;97879.03;4918276;29;20511;-74
2022/11/09 09:59:44;;;;;;;22.25;13.60;;;;;;;27.83;40.24;97873.34;4918290;29;20272;-73
2022/11/09 10:02:17;;;;;;;31.52;14.45;;;;;;;28.01;39.37;97851.72;4935452;29;20023;-72
2022/11/09 10:04:43;;;;;;;21.75;13.23;;;;;;;28.11;37.94;97841.28;4935741;29;20027;-73
2022/11/09 10:07:15;;;;;;;19.27;12.13;;;;;;;28.12;38.45;97839.38;4918374;29;20476;-72
2022/11/09 10:10:01;;;;;;;21.88;13.13;;;;;;;28.57;37.49;97843.53;4918424;29;20035;-72
2022/11/09 10:12:39;;;;;;;27.80;13.73;;;;;;;27.72;38.43;97816.09;4934516;29;20071;-72
2022/11/09 10:15:20;;;;;;;19.00;12.07;;;;;;;28.28;37.28;97833.56;4917935;29;20722;-72
2022/11/09 10:18:04;;;;;;;20.90;12.05;;;;;;;28.73;37.11;97835.00;4933803;29;20519;-72
2022/11/09 10:20:35;;;;;;;18.23;12.35;;;;;;;29.12;36.13;97829.72;4916244;29;20039;-72
2022/11/09 10:23:20;;;;;;;16.70;11.65;;;;;;;28.40;36.18;97816.31;4915838;29;20032;-72
2022/11/09 10:25:48;;;;;;;20.42;11.98;;;;;;;28.42;35.90;97819.75;4899357;29;20036;-73
2022/11/09 10:28:16;;;;;;;20.60;11.70;;;;;;;28.69;35.34;97814.44;4899232;29;20035;-71
2022/11/09 10:30:42;;;;;;;20.88;12.45;;;;;;;27.28;37.15;97792.34;4898457;29;20471;-72
2022/11/09 10:33:10;;;;;;;20.02;12.05;;;;;;;27.12;37.70;97797.22;4898869;29;20063;-71
2022/11/09 10:35:37;;;;;;;16.08;11.00;;;;;;;27.59;36.24;97804.97;4915420;29;20044;-73
2022/11/09 10:38:13;;;;;;;16.60;10.73;;;;;;;27.96;35.49;97797.28;4898610;29;20099;-73
2022/11/09 10:40:47;;;;;;;17.05;10.45;;;;;;;28.25;35.00;97795.44;4898785;29;20059;-73
2022/11/09 10:43:13;;;;;;;21.65;12.85;;;;;;;28.44;35.49;97790.09;4915671;29;20043;-72
2022/11/09 10:45:44;;;;;;;24.13;12.30;;;;;;;29.37;34.65;97805.25;4915707;29;20032;-71
2022/11/09 10:48:12;;;;;;;21.00;12.73;;;;;;;29.33;35.11;97796.53;4898413;29;20114;-72
2022/11/09 10:50:39;;;;;;;19.67;13.48;;;;;;;28.41;36.61;97779.50;4898617;29;20559;-72
2022/11/09 10:53:18;;;;;;;21.88;13.18;;;;;;;28.21;36.71;97785.91;4915358;29;20469;-73
2022/11/09 10:55:56;;;;;;;24.25;13.57;;;;;;;29.31;35.00;97793.16;4882937;29;20095;-72
2022/11/09 10:58:25;;;;;;;26.17;13.27;;;;;;;29.40;34.79;97791.91;4898703;29;20031;-72
2022/11/09 11:01:19;;;;;;;16.90;11.95;;;;;;;26.02;38.39;97763.31;4915214;29;20028;-72
2022/11/09 11:03:49;;;;;;;18.30;11.52;;;;;;;26.95;38.03;97801.25;4914053;29;20091;-72
2022/11/09 11:06:30;;;;;;;25.30;12.57;;;;;;;28.43;35.73;97804.03;4914767;29;20042;-72
2022/11/09 11:09:04;;;;;;;38.70;12.95;;;;;;;30.29;33.11;97809.03;4915710;29;20063;-72
2022/11/09 11:11:35;;;;;;;20.63;11.55;;;;;;;28.96;34.32;97774.94;4934306;29;20082;-71
2022/11/09 11:14:11;;;;;;;20.88;12.13;;;;;;;28.78;34.21;97772.75;4916991;29;20452;-72
2022/11/09 11:16:38;;;;;;;26.38;11.93;;;;;;;29.41;33.35;97781.75;4917372;29;20483;-72
2022/11/09 11:19:04;;;;;;;20.73;11.55;;;;;;;29.19;33.77;97771.88;4901085;29;20050;-73
2022/11/09 11:21:30;;;;;;;24.35;12.10;;;;;;;28.38;34.85;97768.03;4917014;29;20108;-72